createdAt,value
2022-11-30T00:01:19.242Z,98838.84
2022-11-30T00:04:20.836Z,98838.03
2022-11-30T00:07:22.393Z,98839.84
2022-11-30T00:10:25.354Z,98838.09
2022-11-30T00:13:28.433Z,98835.47
2022-11-30T00:16:30.006Z,98842.53
2022-11-30T00:19:31.529Z,98839.91
2022-11-30T00:22:33.209Z,98839.09
2022-11-30T00:25:36.688Z,98840.00
2022-11-30T00:28:38.995Z,98831.13
2022-11-30T00:31:40.521Z,98830.22
2022-11-30T00:34:42.077Z,98832.06
2022-11-30T00:37:43.755Z,98837.44
2022-11-30T00:40:46.725Z,98834.69
2022-11-30T00:43:51.497Z,98842.66
2022-11-30T00:46:52.982Z,98836.63
2022-11-30T00:49:54.598Z,98838.38
2022-11-30T00:52:57.589Z,98845.47
2022-11-30T00:56:00.370Z,98840.16
2022-11-30T00:59:02.087Z,98845.31
2022-11-30T01:02:04.098Z,98828.66
2022-11-30T01:05:05.911Z,98836.69
2022-11-30T01:08:08.230Z,98837.50
2022-11-30T01:11:14.920Z,98838.41
2022-11-30T01:14:16.528Z,98836.69
2022-11-30T01:17:18.197Z,98849.94
2022-11-30T01:20:19.838Z,98845.47
2022-11-30T01:23:21.371Z,98842.81
2022-11-30T01:26:24.609Z,98848.13
2022-11-30T01:29:26.143Z,98847.25
2022-11-30T01:32:28.319Z,98846.41
2022-11-30T01:35:29.897Z,98844.00
2022-11-30T01:38:32.659Z,98849.28
2022-11-30T01:41:36.086Z,98845.66
2022-11-30T01:44:49.877Z,98845.78
2022-11-30T01:47:52.651Z,98845.94
2022-11-30T01:50:54.543Z,98845.09
2022-11-30T01:53:56.275Z,98849.59
2022-11-30T01:57:00.255Z,98855.94
2022-11-30T02:00:02.508Z,98861.22
2022-11-30T02:03:07.625Z,98849.72
2022-11-30T02:06:09.853Z,98847.94
2022-11-30T02:09:12.576Z,98855.94
2022-11-30T02:12:20.847Z,98847.13
2022-11-30T02:15:25.810Z,98851.41
2022-11-30T02:18:30.801Z,98849.59
2022-11-30T02:21:36.849Z,98857.53
2022-11-30T02:24:42.237Z,98858.50
2022-11-30T02:27:52.760Z,98851.66
2022-11-30T02:30:59.327Z,98853.47
2022-11-30T02:34:02.698Z,98857.84
2022-11-30T02:37:05.727Z,98856.03
2022-11-30T02:40:08.403Z,98856.13
2022-11-30T02:43:09.903Z,98862.31
2022-11-30T02:46:16.403Z,98858.78
2022-11-30T02:49:24.015Z,98859.63
2022-11-30T02:52:27.264Z,98860.44
2022-11-30T02:55:29.198Z,98862.38
2022-11-30T02:58:31.140Z,98864.22
2022-11-30T03:01:33.993Z,98861.41
2022-11-30T03:04:35.560Z,98857.03
2022-11-30T03:07:37.322Z,98867.69
2022-11-30T03:10:38.967Z,98868.59
2022-11-30T03:13:40.562Z,98870.38
2022-11-30T03:16:44.259Z,98866.00
2022-11-30T03:19:45.767Z,98880.09
2022-11-30T03:22:47.406Z,98875.72
2022-11-30T03:25:48.888Z,98880.16
2022-11-30T03:28:51.014Z,98872.16
2022-11-30T03:31:53.926Z,98876.59
2022-11-30T03:34:55.501Z,98868.59
2022-11-30T03:37:57.787Z,98870.38
2022-11-30T03:40:59.835Z,98866.81
2022-11-30T03:44:01.488Z,98871.25
2022-11-30T03:47:04.523Z,98871.28
2022-11-30T03:50:06.730Z,98873.13
2022-11-30T03:53:08.193Z,98882.88
2022-11-30T03:56:10.443Z,98878.50
2022-11-30T03:59:11.862Z,98874.75
2022-11-30T04:02:14.668Z,98871.38
2022-11-30T04:05:18.035Z,98879.31
2022-11-30T04:08:19.462Z,98878.47
2022-11-30T04:11:21.046Z,98882.16
2022-11-30T04:14:22.507Z,98885.84
2022-11-30T04:17:25.471Z,98886.69
2022-11-30T04:20:27.293Z,98884.00
2022-11-30T04:23:30.181Z,98888.41
2022-11-30T04:26:31.626Z,98893.75
2022-11-30T04:29:33.049Z,98888.47
2022-11-30T04:32:36.067Z,98899.13
2022-11-30T04:35:39.790Z,98894.72
2022-11-30T04:38:41.382Z,98898.28
2022-11-30T04:41:44.144Z,98895.78
2022-11-30T04:44:45.884Z,98891.34
2022-11-30T04:47:49.052Z,98894.03
2022-11-30T04:50:50.751Z,98894.91
2022-11-30T04:53:52.494Z,98891.34
2022-11-30T04:56:53.979Z,98898.28
2022-11-30T04:59:55.515Z,98893.88
2022-11-30T05:02:58.502Z,98900.03
2022-11-30T05:06:00.091Z,98890.25
2022-11-30T05:09:01.537Z,98906.16
2022-11-30T05:12:03.123Z,98899.13
2022-11-30T05:15:05.172Z,98906.03
2022-11-30T05:18:08.009Z,98901.50
2022-11-30T05:21:09.676Z,98910.22
2022-11-30T05:24:12.198Z,98910.16
2022-11-30T05:27:19.378Z,98911.91
2022-11-30T05:30:24.176Z,98916.38
2022-11-30T05:33:27.321Z,98923.41
2022-11-30T05:36:28.815Z,98919.91
2022-11-30T05:39:30.273Z,98927.84
2022-11-30T05:42:31.982Z,98927.13
2022-11-30T05:45:33.436Z,98921.09
2022-11-30T05:48:36.556Z,98933.47
2022-11-30T05:51:39.310Z,98927.31
2022-11-30T05:54:41.175Z,98922.97
2022-11-30T05:57:42.752Z,98928.13
2022-11-30T06:00:44.193Z,98942.16
2022-11-30T06:03:47.489Z,98941.25
2022-11-30T06:06:49.605Z,98932.44
2022-11-30T06:09:51.245Z,98937.81
2022-11-30T06:12:52.790Z,98941.38
2022-11-30T06:15:54.334Z,98938.81
2022-11-30T06:18:57.211Z,98939.84
2022-11-30T06:21:58.695Z,98948.75
2022-11-30T06:25:00.181Z,98944.47
2022-11-30T06:28:01.830Z,98944.50
2022-11-30T06:31:04.718Z,98953.28
2022-11-30T06:34:07.608Z,98953.25
2022-11-30T06:37:09.110Z,98955.97
2022-11-30T06:40:11.641Z,98959.66
2022-11-30T06:43:13.923Z,98962.13
2022-11-30T06:46:15.615Z,98961.34
2022-11-30T06:49:18.691Z,98967.44
2022-11-30T06:52:20.185Z,98969.25
2022-11-30T06:55:21.675Z,98971.91
2022-11-30T06:58:23.406Z,98975.28
2022-11-30T07:01:24.848Z,98969.00
2022-11-30T07:04:27.841Z,98971.59
2022-11-30T07:07:29.707Z,98974.16
2022-11-30T07:10:31.239Z,98978.63
2022-11-30T07:13:32.675Z,98975.09
2022-11-30T07:16:34.255Z,98982.28
2022-11-30T07:19:37.350Z,98991.13
2022-11-30T07:22:38.930Z,98991.91
2022-11-30T07:25:58.976Z,98994.72
2022-11-30T07:29:00.647Z,98986.81
2022-11-30T07:32:02.284Z,98980.59
2022-11-30T07:35:05.474Z,98986.94
2022-11-30T07:38:09.921Z,98992.22
2022-11-30T07:41:11.862Z,98994.94
2022-11-30T07:44:16.196Z,98995.72
2022-11-30T07:47:17.742Z,99001.97
2022-11-30T07:50:20.654Z,99008.06
2022-11-30T07:53:22.339Z,99001.88
2022-11-30T07:56:23.921Z,99004.53
2022-11-30T07:59:25.503Z,99005.34
2022-11-30T08:02:27.103Z,99014.09
2022-11-30T08:05:30.107Z,99004.25
2022-11-30T08:08:32.816Z,99009.53
2022-11-30T08:11:35.190Z,99011.31
2022-11-30T08:14:50.673Z,99014.91
2022-11-30T08:18:00.428Z,99010.53
2022-11-30T08:21:04.516Z,99012.19
2022-11-30T08:24:06.274Z,99022.69
2022-11-30T08:27:07.879Z,99016.63
2022-11-30T08:30:09.785Z,99029.00
2022-11-30T08:33:12.335Z,99025.44
2022-11-30T08:36:16.616Z,99028.09
2022-11-30T08:39:18.769Z,99032.63
2022-11-30T08:42:20.343Z,99033.44
2022-11-30T08:45:21.923Z,99036.03
2022-11-30T08:48:23.641Z,99035.22
2022-11-30T08:51:26.684Z,99039.66
2022-11-30T08:54:28.137Z,99035.25
2022-11-30T08:57:30.460Z,99036.28
2022-11-30T09:00:32.006Z,99037.25
2022-11-30T09:03:33.707Z,99044.19
2022-11-30T09:06:36.520Z,99046.16
2022-11-30T09:09:38.250Z,99055.97
2022-11-30T09:12:40.224Z,99056.84
2022-11-30T09:15:42.782Z,99066.50
2022-11-30T09:18:44.597Z,99063.91
2022-11-30T09:21:51.880Z,99057.88
2022-11-30T09:24:54.056Z,99063.19
2022-11-30T09:27:55.662Z,99058.81
2022-11-30T09:31:01.158Z,99055.34
2022-11-30T09:34:02.701Z,99062.34
2022-11-30T09:37:05.621Z,99060.59
2022-11-30T09:40:07.801Z,99067.72
2022-11-30T09:43:18.973Z,99064.19
2022-11-30T09:46:24.147Z,99069.53
2022-11-30T09:49:28.778Z,99068.63
2022-11-30T09:52:33.899Z,99068.63
2022-11-30T09:55:39.359Z,99074.91
2022-11-30T09:58:47.313Z,99073.19
2022-11-30T10:01:52.097Z,99075.94
2022-11-30T10:04:58.576Z,99069.75
2022-11-30T10:08:08.489Z,99073.38
2022-11-30T10:11:24.348Z,99071.59
2022-11-30T10:14:49.898Z,99082.19
2022-11-30T10:17:53.917Z,99076.97
2022-11-30T10:20:59.457Z,99070.78
2022-11-30T10:24:13.853Z,99066.31
2022-11-30T10:27:17.481Z,99065.41
2022-11-30T10:30:23.556Z,99058.38
2022-11-30T10:33:27.465Z,99062.88
2022-11-30T10:36:33.247Z,99054.09
2022-11-30T10:39:39.022Z,99060.22
2022-11-30T10:42:42.419Z,99054.94
2022-11-30T10:45:46.253Z,99059.22
2022-11-30T10:48:51.309Z,99063.69
2022-11-30T10:51:54.952Z,99060.03
2022-11-30T10:55:03.722Z,99061.78
2022-11-30T10:58:11.096Z,99059.25
2022-11-30T11:01:29.367Z,99064.59
2022-11-30T11:04:30.929Z,99067.25
2022-11-30T11:07:32.645Z,99064.56
2022-11-30T11:10:37.149Z,99066.34
2022-11-30T11:13:39.804Z,99061.94
2022-11-30T11:16:49.735Z,99069.03
2022-11-30T11:19:52.011Z,99068.09
2022-11-30T11:22:53.563Z,99062.72
2022-11-30T11:25:57.590Z,99074.00
2022-11-30T11:29:02.486Z,99074.16
2022-11-30T11:32:19.000Z,99075.06
2022-11-30T11:35:34.179Z,99084.78
2022-11-30T11:38:40.557Z,99082.13
2022-11-30T11:41:43.549Z,99079.53
2022-11-30T11:44:49.762Z,99086.63
2022-11-30T11:47:57.844Z,99087.47
2022-11-30T11:51:08.438Z,99084.78
2022-11-30T11:54:15.953Z,99082.13
2022-11-30T11:57:21.211Z,99082.09
2022-11-30T12:00:26.092Z,99079.38
2022-11-30T12:03:31.624Z,99082.00
2022-11-30T12:06:36.961Z,99079.31
2022-11-30T12:09:41.342Z,99084.66
2022-11-30T12:12:48.424Z,99083.91
2022-11-30T12:15:58.829Z,99086.56
2022-11-30T12:19:04.303Z,99084.84
2022-11-30T12:22:13.439Z,99081.34
2022-11-30T12:25:23.989Z,99084.00
2022-11-30T12:28:30.945Z,99085.69
2022-11-30T12:31:36.170Z,99086.50
2022-11-30T12:34:48.204Z,99084.84
2022-11-30T12:37:58.479Z,99087.47
2022-11-30T12:41:06.305Z,99087.44
2022-11-30T12:44:18.622Z,99083.09
2022-11-30T12:47:29.086Z,99090.13
2022-11-30T12:50:39.875Z,99088.47
2022-11-30T12:53:45.705Z,99092.94
2022-11-30T12:56:49.528Z,99092.19
2022-11-30T12:59:57.542Z,99091.28
2022-11-30T13:03:13.875Z,99098.38
2022-11-30T13:06:17.749Z,99093.03
2022-11-30T13:09:25.257Z,99098.38
2022-11-30T13:12:35.884Z,99093.97
2022-11-30T13:15:39.937Z,99093.09
2022-11-30T13:18:42.579Z,99100.19
2022-11-30T13:21:49.166Z,99095.72
2022-11-30T13:24:55.573Z,99101.03
2022-11-30T13:28:02.544Z,99103.84
2022-11-30T13:31:07.944Z,99101.25
2022-11-30T13:34:22.864Z,99106.63
2022-11-30T13:37:27.370Z,99106.66
2022-11-30T13:40:31.199Z,99108.38
2022-11-30T13:43:35.666Z,99106.63
2022-11-30T13:46:48.118Z,99101.38
2022-11-30T13:49:54.765Z,99110.22
2022-11-30T13:53:30.031Z,99106.66
2022-11-30T13:56:35.890Z,99108.47
2022-11-30T13:59:44.518Z,99112.13
2022-11-30T14:02:53.870Z,99103.31
2022-11-30T14:05:55.795Z,99103.34
2022-11-30T14:08:57.579Z,99109.47
2022-11-30T14:11:59.102Z,99103.31
2022-11-30T14:15:01.111Z,99113.88
2022-11-30T14:18:12.661Z,99112.13
2022-11-30T14:21:16.544Z,99117.44
2022-11-30T14:24:20.035Z,99119.25
2022-11-30T14:27:23.447Z,99119.25
2022-11-30T14:30:25.055Z,99122.75
2022-11-30T14:33:35.633Z,99126.25
2022-11-30T14:36:40.281Z,99128.00
2022-11-30T14:39:42.470Z,99124.53
2022-11-30T14:42:46.847Z,99130.72
2022-11-30T14:46:03.050Z,99133.31
2022-11-30T14:49:12.717Z,99136.00
2022-11-30T14:52:16.262Z,99128.00
2022-11-30T14:55:24.636Z,99136.00
2022-11-30T14:58:32.689Z,99138.69
2022-11-30T15:01:34.181Z,99136.09
2022-11-30T15:04:37.386Z,99144.00
2022-11-30T15:07:41.461Z,99144.88
2022-11-30T15:10:43.744Z,99143.16
2022-11-30T15:13:47.449Z,99151.94
2022-11-30T15:16:50.825Z,99145.78
2022-11-30T15:19:53.730Z,99157.22
2022-11-30T15:22:56.887Z,99145.72
2022-11-30T15:26:00.478Z,99151.03
2022-11-30T15:29:03.272Z,99153.63
2022-11-30T15:32:07.076Z,99155.34
2022-11-30T15:35:18.202Z,99157.94
2022-11-30T15:38:21.505Z,99158.00
2022-11-30T15:41:24.426Z,99154.47
2022-11-30T15:44:37.448Z,99158.88
2022-11-30T15:47:38.959Z,99166.00
2022-11-30T15:50:41.989Z,99154.56
2022-11-30T15:53:50.874Z,99160.75
2022-11-30T15:56:55.313Z,99159.91
2022-11-30T16:00:06.224Z,99158.13
2022-11-30T16:03:08.372Z,99154.56
2022-11-30T16:06:18.566Z,99163.41
2022-11-30T16:09:20.912Z,99162.50
2022-11-30T16:12:27.518Z,99168.75
2022-11-30T16:15:33.038Z,99164.38
2022-11-30T16:18:34.558Z,99165.22
2022-11-30T16:21:37.456Z,99165.25
2022-11-30T16:24:38.928Z,99174.94
2022-11-30T16:27:41.351Z,99168.81
2022-11-30T16:30:42.882Z,99167.09
2022-11-30T16:33:45.029Z,99175.91
2022-11-30T16:36:47.924Z,99175.91
2022-11-30T16:39:49.659Z,99176.81
2022-11-30T16:42:51.792Z,99181.25
2022-11-30T16:45:53.630Z,99186.53
2022-11-30T16:48:55.360Z,99185.63
2022-11-30T16:51:58.431Z,99185.63
2022-11-30T16:55:00.132Z,99197.06
2022-11-30T16:58:01.991Z,99192.78
2022-11-30T17:01:04.341Z,99198.06
2022-11-30T17:04:11.331Z,99197.16
2022-11-30T17:07:14.744Z,99202.44
2022-11-30T17:10:16.554Z,99197.16
2022-11-30T17:13:18.163Z,99208.66
2022-11-30T17:16:19.823Z,99217.50
2022-11-30T17:19:22.042Z,99215.78
2022-11-30T17:22:25.051Z,99223.66
2022-11-30T17:25:26.812Z,99213.97
2022-11-30T17:28:28.335Z,99215.72
2022-11-30T17:31:30.049Z,99228.97
2022-11-30T17:34:31.785Z,99231.56
2022-11-30T17:37:34.876Z,99228.91
2022-11-30T17:40:39.096Z,99227.16
2022-11-30T17:43:40.725Z,99227.16
2022-11-30T17:46:46.798Z,99226.19
2022-11-30T17:49:50.214Z,99222.75
2022-11-30T17:52:53.134Z,99225.38
2022-11-30T17:56:01.344Z,99224.47
2022-11-30T17:59:02.926Z,99229.72
2022-11-30T18:02:04.468Z,99235.03
2022-11-30T18:05:06.479Z,99239.47
2022-11-30T18:08:09.408Z,99242.06
2022-11-30T18:11:11.857Z,99243.75
2022-11-30T18:14:13.520Z,99246.41
2022-11-30T18:17:15.010Z,99256.16
2022-11-30T18:20:16.504Z,99253.56
2022-11-30T18:23:19.592Z,99250.84
2022-11-30T18:26:22.116Z,99254.44
2022-11-30T18:29:23.698Z,99253.47
2022-11-30T18:32:25.227Z,99264.13
2022-11-30T18:35:26.802Z,99256.25
2022-11-30T18:38:35.777Z,99258.91
2022-11-30T18:41:39.259Z,99259.84
2022-11-30T18:44:40.843Z,99267.72
2022-11-30T18:47:42.355Z,99265.97
2022-11-30T18:50:44.154Z,99266.84
2022-11-30T18:53:47.261Z,99270.31
2022-11-30T18:56:48.723Z,99272.97
2022-11-30T18:59:53.846Z,99272.06
2022-11-30T19:02:55.908Z,99273.81
2022-11-30T19:05:57.457Z,99276.47
2022-11-30T19:09:01.981Z,99274.75
2022-11-30T19:12:03.733Z,99278.25
2022-11-30T19:15:06.111Z,99276.50
2022-11-30T19:18:09.033Z,99290.63
2022-11-30T19:21:11.647Z,99283.59
2022-11-30T19:24:14.684Z,99288.06
2022-11-30T19:27:16.078Z,99283.69
2022-11-30T19:30:17.829Z,99288.97
2022-11-30T19:33:19.608Z,99287.19
2022-11-30T19:36:22.043Z,99287.19
2022-11-30T19:39:24.890Z,99297.75
2022-11-30T19:42:26.454Z,99292.38
2022-11-30T19:45:28.299Z,99295.03
2022-11-30T19:48:30.022Z,99296.88
2022-11-30T19:51:31.607Z,99300.38
2022-11-30T19:54:34.613Z,99304.75
2022-11-30T19:57:36.345Z,99301.16
2022-11-30T20:00:37.807Z,99299.44
2022-11-30T20:03:39.279Z,99298.63
2022-11-30T20:06:40.806Z,99298.69
2022-11-30T20:09:43.779Z,99307.47
2022-11-30T20:12:45.294Z,99303.91
2022-11-30T20:15:46.757Z,99309.13
2022-11-30T20:18:51.746Z,99303.81
2022-11-30T20:21:53.230Z,99306.50
2022-11-30T20:24:56.291Z,99313.63
2022-11-30T20:27:57.864Z,99304.84
2022-11-30T20:31:02.012Z,99306.63
2022-11-30T20:34:03.690Z,99311.97
2022-11-30T20:37:05.211Z,99311.06
2022-11-30T20:40:09.023Z,99318.13
2022-11-30T20:43:10.522Z,99319.06
2022-11-30T20:46:12.925Z,99310.25
2022-11-30T20:49:16.075Z,99308.44
2022-11-30T20:52:18.066Z,99310.22
2022-11-30T20:55:20.942Z,99304.03
2022-11-30T20:58:25.460Z,99317.22
2022-11-30T21:01:26.996Z,99315.47
2022-11-30T21:04:28.635Z,99315.47
2022-11-30T21:07:30.090Z,99322.47
2022-11-30T21:10:32.980Z,99319.88
2022-11-30T21:13:34.876Z,99319.88
2022-11-30T21:16:36.742Z,99323.41
2022-11-30T21:19:38.388Z,99324.28
2022-11-30T21:22:39.999Z,99318.97
2022-11-30T21:25:42.931Z,99320.72
2022-11-30T21:28:44.466Z,99318.94
2022-11-30T21:31:46.262Z,99318.03
2022-11-30T21:34:47.949Z,99319.84
2022-11-30T21:37:49.629Z,99324.28
2022-11-30T21:40:56.340Z,99318.97
2022-11-30T21:43:57.971Z,99314.56
2022-11-30T21:46:59.491Z,99317.19
2022-11-30T21:50:03.559Z,99321.69
2022-11-30T21:53:05.328Z,99321.75
2022-11-30T21:56:09.286Z,99317.34
2022-11-30T21:59:13.405Z,99324.41
2022-11-30T22:02:14.969Z,99320.94
2022-11-30T22:05:16.644Z,99316.50
2022-11-30T22:08:18.227Z,99318.31
2022-11-30T22:11:22.049Z,99320.94
2022-11-30T22:14:23.873Z,99320.97
2022-11-30T22:17:25.434Z,99328.00
2022-11-30T22:20:26.997Z,99326.25
2022-11-30T22:23:28.605Z,99323.63
2022-11-30T22:26:32.612Z,99320.97
2022-11-30T22:29:34.194Z,99324.50
2022-11-30T22:32:39.522Z,99312.19
2022-11-30T22:35:43.732Z,99317.44
2022-11-30T22:38:45.823Z,99321.84
2022-11-30T22:41:55.046Z,99317.44
2022-11-30T22:44:57.452Z,99309.50
2022-11-30T22:47:59.007Z,99310.34
2022-11-30T22:51:04.089Z,99313.91
2022-11-30T22:54:06.448Z,99315.69
2022-11-30T22:57:09.395Z,99318.38
2022-11-30T23:00:11.643Z,99304.31
2022-11-30T23:03:13.208Z,99308.72
2022-11-30T23:06:15.843Z,99312.25
2022-11-30T23:09:19.728Z,99313.97
2022-11-30T23:12:50.888Z,99315.72
2022-11-30T23:15:44.306Z,99312.25
2022-11-30T23:18:46.588Z,99306.97
2022-11-30T23:21:50.039Z,99306.94
2022-11-30T23:24:51.718Z,99302.59
2022-11-30T23:27:54.635Z,99302.63
2022-11-30T23:31:03.498Z,99302.63
2022-11-30T23:34:06.441Z,99306.19
2022-11-30T23:37:08.003Z,99304.50
2022-11-30T23:40:09.849Z,99302.75
2022-11-30T23:43:12.864Z,99307.09
2022-11-30T23:46:14.365Z,99308.03
2022-11-30T23:49:16.282Z,99304.50
2022-11-30T23:52:17.831Z,99308.00
2022-11-30T23:55:19.442Z,99306.25
2022-11-30T23:58:23.071Z,99300.09
